createdAt,value
2023-05-18T00:01:00.520Z,100278.91
2023-05-18T00:11:03.581Z,100286.66
2023-05-18T00:21:06.590Z,100289.34
2023-05-18T00:31:08.246Z,100296.19
2023-05-18T00:41:10.192Z,100300.56
2023-05-18T00:51:12.444Z,100298.94
2023-05-18T01:01:14.545Z,100308.53
2023-05-18T01:11:33.681Z,100307.72
2023-05-18T01:22:04.325Z,100314.66
2023-05-18T01:32:09.461Z,100331.03
2023-05-18T01:42:15.515Z,100326.66
2023-05-18T01:52:21.520Z,100334.41
2023-05-18T02:02:23.329Z,100339.59
2023-05-18T02:12:26.592Z,100341.28
2023-05-18T02:22:28.340Z,100351.63
2023-05-18T02:32:32.821Z,100358.44
2023-05-18T02:42:34.630Z,100362.72
2023-05-18T02:52:38.456Z,100356.66
2023-05-18T03:02:40.458Z,100360.09
2023-05-18T03:12:42.300Z,100362.59
2023-05-18T03:22:44.109Z,100370.41
2023-05-18T03:32:48.067Z,100374.81
2023-05-18T03:42:49.855Z,100389.47
2023-05-18T03:52:53.163Z,100393.75
2023-05-18T04:02:57.226Z,100399.75
2023-05-18T04:12:59.497Z,100400.63
2023-05-18T04:23:01.234Z,100422.22
2023-05-18T04:33:04.220Z,100422.94
2023-05-18T04:43:05.951Z,100425.41
2023-05-18T04:53:09.391Z,100426.97
2023-05-18T05:03:12.290Z,100427.59
2023-05-18T05:13:15.137Z,100431.88
2023-05-18T05:23:17.167Z,100446.56
2023-05-18T05:33:24.830Z,100444.84
2023-05-18T05:43:26.849Z,100461.19
2023-05-18T05:53:29.836Z,100461.88
2023-05-18T06:03:36.183Z,100467.75
2023-05-18T06:13:38.857Z,100478.03
2023-05-18T06:23:41.893Z,100492.19
2023-05-18T06:33:43.939Z,100500.00
2023-05-18T06:43:45.743Z,100509.50
2023-05-18T06:53:47.831Z,100522.44
2023-05-18T07:03:50.057Z,100522.28
2023-05-18T07:13:51.820Z,100535.78
2023-05-18T07:23:53.623Z,100536.41
2023-05-18T07:33:55.452Z,100545.97
2023-05-18T07:43:58.213Z,100554.31
2023-05-18T07:54:00.007Z,100568.56
2023-05-18T08:04:02.289Z,100565.97
2023-05-18T08:14:05.504Z,100575.41
2023-05-18T08:24:08.149Z,100583.13
2023-05-18T08:34:09.986Z,100583.06
2023-05-18T08:44:26.051Z,100580.84
2023-05-18T08:54:37.200Z,100595.50
2023-05-18T09:04:41.294Z,100592.13
2023-05-18T09:14:43.895Z,100582.25
2023-05-18T09:24:45.811Z,100577.84
2023-05-18T09:34:50.117Z,100577.78
2023-05-18T09:44:51.695Z,100590.06
2023-05-18T09:55:00.274Z,100601.88
2023-05-18T10:05:01.956Z,100596.53
2023-05-18T10:15:03.746Z,100598.06
2023-05-18T10:25:06.308Z,100591.41
2023-05-18T10:35:08.762Z,100597.75
2023-05-18T10:45:10.857Z,100600.50
2023-05-18T10:55:13.127Z,100601.09
2023-05-18T11:05:14.787Z,100600.06
2023-05-18T11:15:19.081Z,100605.63
2023-05-18T11:25:33.030Z,100609.81
2023-05-18T11:35:37.339Z,100615.63
2023-05-18T11:45:52.644Z,100614.44
2023-05-18T11:55:54.882Z,100613.53
2023-05-18T12:06:00.458Z,100624.69
2023-05-18T12:16:02.512Z,100624.91
2023-05-18T12:26:04.560Z,100630.97
2023-05-18T12:36:13.577Z,100630.13
2023-05-18T12:46:15.292Z,100621.34
2023-05-18T12:56:18.273Z,100620.72
2023-05-18T13:06:19.971Z,100622.81
2023-05-18T13:16:21.652Z,100620.81
2023-05-18T13:26:24.449Z,100621.69
2023-05-18T13:36:26.424Z,100623.00
2023-05-18T13:46:28.336Z,100622.75
2023-05-18T13:56:31.778Z,100634.81
2023-05-18T14:06:36.007Z,100635.84
2023-05-18T14:16:38.759Z,100635.94
2023-05-18T14:26:42.171Z,100650.09
2023-05-18T14:36:45.258Z,100642.31
2023-05-18T14:46:47.367Z,100647.66
2023-05-18T14:56:49.137Z,100659.28
2023-05-18T15:06:51.090Z,100665.66
2023-05-18T15:16:52.905Z,100660.19
2023-05-18T15:26:56.718Z,100662.97
2023-05-18T15:36:58.943Z,100660.38
2023-05-18T15:47:01.767Z,100665.78
2023-05-18T15:57:03.577Z,100669.78
2023-05-18T16:07:05.511Z,100667.13
2023-05-18T16:17:07.287Z,100675.09
2023-05-18T16:27:09.281Z,100679.97
2023-05-18T16:37:11.468Z,100679.16
2023-05-18T16:47:13.229Z,100684.69
2023-05-18T16:57:15.262Z,100683.16
2023-05-18T17:07:17.617Z,100684.44
2023-05-18T17:17:20.822Z,100685.66
2023-05-18T17:27:22.805Z,100703.47
2023-05-18T17:37:26.009Z,100699.06
2023-05-18T17:47:27.927Z,100687.06
2023-05-18T17:57:30.496Z,100691.63
2023-05-18T18:07:36.000Z,100674.38
2023-05-18T18:17:38.210Z,100708.44
2023-05-18T18:27:42.498Z,100734.50
2023-05-18T18:37:46.043Z,100727.50
2023-05-18T18:47:48.591Z,100726.75
2023-05-18T18:57:50.995Z,100732.00
2023-05-18T19:07:55.859Z,100746.69
2023-05-18T19:17:58.020Z,100756.16
2023-05-18T19:28:00.858Z,100766.53
2023-05-18T19:38:02.669Z,100775.13
2023-05-18T19:48:04.659Z,100787.19
2023-05-18T19:58:07.985Z,100795.84
2023-05-18T20:08:10.145Z,100810.53
2023-05-18T20:18:12.142Z,100818.28
2023-05-18T20:28:15.485Z,100815.69
2023-05-18T20:38:19.437Z,100819.09
2023-05-18T20:48:26.879Z,100822.53
2023-05-18T20:58:29.115Z,100821.59
2023-05-18T21:08:32.587Z,100825.09
2023-05-18T21:18:37.579Z,100832.84
2023-05-18T21:28:40.695Z,100838.88
2023-05-18T21:38:42.619Z,100835.53
2023-05-18T21:48:46.295Z,100845.88
2023-05-18T21:58:47.963Z,100852.81
2023-05-18T22:08:50.850Z,100854.59
2023-05-18T22:18:52.688Z,100852.84
2023-05-18T22:28:54.469Z,100856.38
2023-05-18T22:38:57.491Z,100860.78
2023-05-18T22:48:59.286Z,100847.75
2023-05-18T22:59:01.569Z,100853.88
2023-05-18T23:09:03.516Z,100850.44
2023-05-18T23:19:09.568Z,100841.88
2023-05-18T23:29:11.545Z,100860.03
2023-05-18T23:39:14.204Z,100853.13
2023-05-18T23:49:16.107Z,100859.13
2023-05-18T23:59:20.408Z,100866.09
